sensor_id;sensor_type;location;lat;lon;timestamp;temperature;humidity
16907;DHT22;8570;52.380;4.654;2023-05-17T00:04:11;11.00;99.90
16907;DHT22;8570;52.380;4.654;2023-05-17T00:09:13;11.00;99.90
16907;DHT22;8570;52.380;4.654;2023-05-17T00:14:15;11.00;99.90
16907;DHT22;8570;52.380;4.654;2023-05-17T00:19:27;11.10;99.90
16907;DHT22;8570;52.380;4.654;2023-05-17T00:24:29;11.10;99.90
16907;DHT22;8570;52.380;4.654;2023-05-17T00:29:33;11.10;99.90
16907;DHT22;8570;52.380;4.654;2023-05-17T00:34:37;11.10;99.90
16907;DHT22;8570;52.380;4.654;2023-05-17T00:39:38;11.10;99.90
16907;DHT22;8570;52.380;4.654;2023-05-17T00:44:40;11.10;99.90
16907;DHT22;8570;52.380;4.654;2023-05-17T00:49:44;11.10;99.90
16907;DHT22;8570;52.380;4.654;2023-05-17T00:54:47;11.10;99.90
16907;DHT22;8570;52.380;4.654;2023-05-17T00:59:50;11.20;99.90
16907;DHT22;8570;52.380;4.654;2023-05-17T01:04:57;11.20;99.90
16907;DHT22;8570;52.380;4.654;2023-05-17T01:09:59;11.20;99.90
16907;DHT22;8570;52.380;4.654;2023-05-17T01:15:07;11.20;99.90
16907;DHT22;8570;52.380;4.654;2023-05-17T01:20:18;11.20;99.90
16907;DHT22;8570;52.380;4.654;2023-05-17T01:25:39;11.20;99.90
16907;DHT22;8570;52.380;4.654;2023-05-17T01:30:46;11.30;99.90
16907;DHT22;8570;52.380;4.654;2023-05-17T01:35:50;11.30;99.90
16907;DHT22;8570;52.380;4.654;2023-05-17T01:40:57;11.30;99.90
16907;DHT22;8570;52.380;4.654;2023-05-17T01:46:08;11.30;99.90
16907;DHT22;8570;52.380;4.654;2023-05-17T01:51:17;11.30;99.90
16907;DHT22;8570;52.380;4.654;2023-05-17T01:56:26;11.30;99.90
16907;DHT22;8570;52.380;4.654;2023-05-17T02:01:31;11.30;99.90
16907;DHT22;8570;52.380;4.654;2023-05-17T02:06:34;11.30;99.90
16907;DHT22;8570;52.380;4.654;2023-05-17T02:11:37;11.30;99.90
16907;DHT22;8570;52.380;4.654;2023-05-17T02:16:41;11.20;99.90
16907;DHT22;8570;52.380;4.654;2023-05-17T02:21:46;11.20;99.90
16907;DHT22;8570;52.380;4.654;2023-05-17T02:26:48;11.20;99.90
16907;DHT22;8570;52.380;4.654;2023-05-17T02:31:51;11.10;99.90
16907;DHT22;8570;52.380;4.654;2023-05-17T02:36:53;11.10;99.90
16907;DHT22;8570;52.380;4.654;2023-05-17T02:41:55;11.00;99.90
16907;DHT22;8570;52.380;4.654;2023-05-17T02:46:59;11.00;99.90
16907;DHT22;8570;52.380;4.654;2023-05-17T02:52:00;11.00;99.90
16907;DHT22;8570;52.380;4.654;2023-05-17T02:57:03;10.90;99.90
16907;DHT22;8570;52.380;4.654;2023-05-17T03:02:09;10.90;99.90
16907;DHT22;8570;52.380;4.654;2023-05-17T03:07:11;10.80;99.90
16907;DHT22;8570;52.380;4.654;2023-05-17T03:12:13;10.80;99.90
16907;DHT22;8570;52.380;4.654;2023-05-17T03:17:16;10.70;99.90
16907;DHT22;8570;52.380;4.654;2023-05-17T03:22:18;10.60;99.90
16907;DHT22;8570;52.380;4.654;2023-05-17T03:27:20;10.60;99.90
16907;DHT22;8570;52.380;4.654;2023-05-17T03:32:24;10.50;99.90
16907;DHT22;8570;52.380;4.654;2023-05-17T03:37:26;10.50;99.90
16907;DHT22;8570;52.380;4.654;2023-05-17T03:42:27;10.40;99.90
16907;DHT22;8570;52.380;4.654;2023-05-17T03:47:31;10.40;99.90
16907;DHT22;8570;52.380;4.654;2023-05-17T03:52:33;10.40;99.90
16907;DHT22;8570;52.380;4.654;2023-05-17T03:57:38;10.40;99.90
16907;DHT22;8570;52.380;4.654;2023-05-17T04:02:41;10.40;99.90
16907;DHT22;8570;52.380;4.654;2023-05-17T04:07:43;10.30;99.90
16907;DHT22;8570;52.380;4.654;2023-05-17T04:12:46;10.30;99.90
16907;DHT22;8570;52.380;4.654;2023-05-17T04:17:50;10.20;99.90
16907;DHT22;8570;52.380;4.654;2023-05-17T04:22:52;10.20;99.90
16907;DHT22;8570;52.380;4.654;2023-05-17T04:27:54;10.20;99.90
16907;DHT22;8570;52.380;4.654;2023-05-17T04:32:57;10.10;99.90
16907;DHT22;8570;52.380;4.654;2023-05-17T04:38:02;10.10;99.90
16907;DHT22;8570;52.380;4.654;2023-05-17T04:43:04;10.10;99.90
16907;DHT22;8570;52.380;4.654;2023-05-17T04:48:09;10.10;99.90
16907;DHT22;8570;52.380;4.654;2023-05-17T04:53:11;10.10;99.90
16907;DHT22;8570;52.380;4.654;2023-05-17T04:58:13;10.10;99.90
16907;DHT22;8570;52.380;4.654;2023-05-17T05:03:16;10.20;99.90
16907;DHT22;8570;52.380;4.654;2023-05-17T05:08:18;10.20;99.90
16907;DHT22;8570;52.380;4.654;2023-05-17T05:13:20;10.20;99.90
16907;DHT22;8570;52.380;4.654;2023-05-17T05:18:24;10.20;99.90
16907;DHT22;8570;52.380;4.654;2023-05-17T05:23:26;10.30;99.90
16907;DHT22;8570;52.380;4.654;2023-05-17T05:28:29;10.40;99.90
16907;DHT22;8570;52.380;4.654;2023-05-17T05:33:32;10.50;99.90
16907;DHT22;8570;52.380;4.654;2023-05-17T05:38:34;10.60;99.90
16907;DHT22;8570;52.380;4.654;2023-05-17T05:43:36;10.60;99.90
16907;DHT22;8570;52.380;4.654;2023-05-17T05:48:40;10.60;99.90
16907;DHT22;8570;52.380;4.654;2023-05-17T05:53:44;10.60;99.90
16907;DHT22;8570;52.380;4.654;2023-05-17T05:58:46;10.60;99.90
16907;DHT22;8570;52.380;4.654;2023-05-17T06:03:49;10.70;99.90
16907;DHT22;8570;52.380;4.654;2023-05-17T06:08:56;10.70;99.90
16907;DHT22;8570;52.380;4.654;2023-05-17T06:13:58;10.80;99.90
16907;DHT22;8570;52.380;4.654;2023-05-17T06:19:01;10.80;99.90
16907;DHT22;8570;52.380;4.654;2023-05-17T06:24:04;10.80;99.90
16907;DHT22;8570;52.380;4.654;2023-05-17T06:29:08;10.80;99.90
16907;DHT22;8570;52.380;4.654;2023-05-17T06:34:15;10.90;99.90
16907;DHT22;8570;52.380;4.654;2023-05-17T06:39:17;11.00;99.90
16907;DHT22;8570;52.380;4.654;2023-05-17T06:44:19;11.10;99.90
16907;DHT22;8570;52.380;4.654;2023-05-17T06:49:25;11.20;99.90
16907;DHT22;8570;52.380;4.654;2023-05-17T06:54:30;11.30;99.90
16907;DHT22;8570;52.380;4.654;2023-05-17T06:59:34;11.30;99.90
16907;DHT22;8570;52.380;4.654;2023-05-17T07:04:38;11.20;99.90
16907;DHT22;8570;52.380;4.654;2023-05-17T07:09:40;11.20;99.90
16907;DHT22;8570;52.380;4.654;2023-05-17T07:14:42;11.20;99.90
16907;DHT22;8570;52.380;4.654;2023-05-17T07:19:48;11.20;99.90
16907;DHT22;8570;52.380;4.654;2023-05-17T07:24:50;11.30;99.90
16907;DHT22;8570;52.380;4.654;2023-05-17T07:29:52;11.30;99.90
16907;DHT22;8570;52.380;4.654;2023-05-17T07:34:55;11.40;99.90
16907;DHT22;8570;52.380;4.654;2023-05-17T07:39:59;11.50;99.90
16907;DHT22;8570;52.380;4.654;2023-05-17T07:45:01;11.50;99.90
16907;DHT22;8570;52.380;4.654;2023-05-17T07:50:15;11.60;99.90
16907;DHT22;8570;52.380;4.654;2023-05-17T07:55:17;11.70;99.90
16907;DHT22;8570;52.380;4.654;2023-05-17T08:00:23;11.80;99.90
16907;DHT22;8570;52.380;4.654;2023-05-17T08:05:29;12.00;99.90
16907;DHT22;8570;52.380;4.654;2023-05-17T08:10:32;12.10;99.90
16907;DHT22;8570;52.380;4.654;2023-05-17T08:15:37;12.20;99.90
16907;DHT22;8570;52.380;4.654;2023-05-17T08:20:40;12.40;99.90
16907;DHT22;8570;52.380;4.654;2023-05-17T08:25:42;12.60;99.90
16907;DHT22;8570;52.380;4.654;2023-05-17T08:30:53;12.80;99.90
16907;DHT22;8570;52.380;4.654;2023-05-17T08:35:56;12.90;99.90
16907;DHT22;8570;52.380;4.654;2023-05-17T08:41:00;13.20;99.90
16907;DHT22;8570;52.380;4.654;2023-05-17T08:46:02;13.30;99.90
16907;DHT22;8570;52.380;4.654;2023-05-17T08:51:10;13.50;99.90
16907;DHT22;8570;52.380;4.654;2023-05-17T08:56:13;13.80;99.90
16907;DHT22;8570;52.380;4.654;2023-05-17T09:01:17;14.00;99.90
16907;DHT22;8570;52.380;4.654;2023-05-17T09:06:22;14.30;99.90
16907;DHT22;8570;52.380;4.654;2023-05-17T09:16:28;14.90;99.90
16907;DHT22;8570;52.380;4.654;2023-05-17T09:21:35;15.10;99.90
16907;DHT22;8570;52.380;4.654;2023-05-17T09:26:40;15.20;99.20
16907;DHT22;8570;52.380;4.654;2023-05-17T09:31:43;15.20;99.10
16907;DHT22;8570;52.380;4.654;2023-05-17T09:36:46;15.40;98.60
16907;DHT22;8570;52.380;4.654;2023-05-17T09:41:48;15.40;98.50
16907;DHT22;8570;52.380;4.654;2023-05-17T09:46:50;15.50;98.40
16907;DHT22;8570;52.380;4.654;2023-05-17T09:51:54;15.60;98.10
16907;DHT22;8570;52.380;4.654;2023-05-17T09:56:56;15.70;98.20
16907;DHT22;8570;52.380;4.654;2023-05-17T10:02:10;16.00;98.60
16907;DHT22;8570;52.380;4.654;2023-05-17T10:07:24;16.10;98.10
16907;DHT22;8570;52.380;4.654;2023-05-17T10:12:27;16.20;97.70
16907;DHT22;8570;52.380;4.654;2023-05-17T10:17:32;16.30;97.70
16907;DHT22;8570;52.380;4.654;2023-05-17T10:22:40;16.40;98.00
16907;DHT22;8570;52.380;4.654;2023-05-17T10:27:42;16.60;97.40
16907;DHT22;8570;52.380;4.654;2023-05-17T10:32:44;16.80;97.10
16907;DHT22;8570;52.380;4.654;2023-05-17T10:37:48;16.80;96.40
16907;DHT22;8570;52.380;4.654;2023-05-17T10:42:51;16.80;96.70
16907;DHT22;8570;52.380;4.654;2023-05-17T10:47:54;17.00;96.50
16907;DHT22;8570;52.380;4.654;2023-05-17T10:52:58;17.10;96.10
16907;DHT22;8570;52.380;4.654;2023-05-17T10:58:16;17.30;96.00
16907;DHT22;8570;52.380;4.654;2023-05-17T11:03:20;17.40;95.70
16907;DHT22;8570;52.380;4.654;2023-05-17T11:08:24;17.40;95.50
16907;DHT22;8570;52.380;4.654;2023-05-17T11:13:27;17.40;95.30
16907;DHT22;8570;52.380;4.654;2023-05-17T11:18:45;17.60;95.30
16907;DHT22;8570;52.380;4.654;2023-05-17T11:23:54;17.70;95.90
16907;DHT22;8570;52.380;4.654;2023-05-17T11:29:00;17.70;95.70
16907;DHT22;8570;52.380;4.654;2023-05-17T11:34:03;17.80;95.10
16907;DHT22;8570;52.380;4.654;2023-05-17T11:39:13;17.70;95.10
16907;DHT22;8570;52.380;4.654;2023-05-17T11:44:22;17.60;94.70
16907;DHT22;8570;52.380;4.654;2023-05-17T11:49:26;17.70;95.50
16907;DHT22;8570;52.380;4.654;2023-05-17T11:54:31;17.90;95.80
16907;DHT22;8570;52.380;4.654;2023-05-17T11:59:36;18.10;95.20
16907;DHT22;8570;52.380;4.654;2023-05-17T12:04:39;18.40;94.70
16907;DHT22;8570;52.380;4.654;2023-05-17T12:09:43;18.60;94.30
16907;DHT22;8570;52.380;4.654;2023-05-17T12:14:47;18.70;93.90
16907;DHT22;8570;52.380;4.654;2023-05-17T12:19:51;18.80;93.90
16907;DHT22;8570;52.380;4.654;2023-05-17T12:24:55;18.80;93.30
16907;DHT22;8570;52.380;4.654;2023-05-17T12:29:57;18.80;93.10
16907;DHT22;8570;52.380;4.654;2023-05-17T12:34:59;18.80;92.80
16907;DHT22;8570;52.380;4.654;2023-05-17T12:40:03;18.70;92.80
16907;DHT22;8570;52.380;4.654;2023-05-17T12:45:06;18.70;92.80
16907;DHT22;8570;52.380;4.654;2023-05-17T12:50:12;18.70;92.90
16907;DHT22;8570;52.380;4.654;2023-05-17T12:55:15;18.70;93.00
16907;DHT22;8570;52.380;4.654;2023-05-17T13:00:18;18.70;92.70
16907;DHT22;8570;52.380;4.654;2023-05-17T13:05:20;18.70;92.90
16907;DHT22;8570;52.380;4.654;2023-05-17T13:10:25;18.70;92.60
16907;DHT22;8570;52.380;4.654;2023-05-17T13:15:28;18.60;92.50
16907;DHT22;8570;52.380;4.654;2023-05-17T13:20:30;18.40;92.60
16907;DHT22;8570;52.380;4.654;2023-05-17T13:25:34;18.30;93.00
16907;DHT22;8570;52.380;4.654;2023-05-17T13:30:36;18.40;93.20
16907;DHT22;8570;52.380;4.654;2023-05-17T13:35:38;18.50;93.20
16907;DHT22;8570;52.380;4.654;2023-05-17T13:40:41;18.40;92.80
16907;DHT22;8570;52.380;4.654;2023-05-17T13:45:45;18.50;93.00
16907;DHT22;8570;52.380;4.654;2023-05-17T13:50:50;18.60;93.10
16907;DHT22;8570;52.380;4.654;2023-05-17T13:55:53;18.80;93.10
16907;DHT22;8570;52.380;4.654;2023-05-17T14:00:56;18.80;92.60
16907;DHT22;8570;52.380;4.654;2023-05-17T14:05:58;18.70;92.80
16907;DHT22;8570;52.380;4.654;2023-05-17T14:11:01;18.60;92.90
16907;DHT22;8570;52.380;4.654;2023-05-17T14:16:03;18.60;92.70
16907;DHT22;8570;52.380;4.654;2023-05-17T14:21:05;18.60;93.00
16907;DHT22;8570;52.380;4.654;2023-05-17T14:26:09;18.50;93.00
16907;DHT22;8570;52.380;4.654;2023-05-17T14:31:11;18.60;93.00
16907;DHT22;8570;52.380;4.654;2023-05-17T14:36:13;18.60;92.40
16907;DHT22;8570;52.380;4.654;2023-05-17T14:41:16;18.60;92.40
16907;DHT22;8570;52.380;4.654;2023-05-17T14:52:17;18.40;91.80
16907;DHT22;8570;52.380;4.654;2023-05-17T14:57:21;18.50;92.40
16907;DHT22;8570;52.380;4.654;2023-05-17T15:02:26;18.50;92.00
16907;DHT22;8570;52.380;4.654;2023-05-17T15:07:28;18.40;91.90
16907;DHT22;8570;52.380;4.654;2023-05-17T15:12:32;18.40;91.30
16907;DHT22;8570;52.380;4.654;2023-05-17T15:17:34;18.30;89.80
16907;DHT22;8570;52.380;4.654;2023-05-17T15:22:36;18.30;90.20
16907;DHT22;8570;52.380;4.654;2023-05-17T15:27:40;18.20;90.40
16907;DHT22;8570;52.380;4.654;2023-05-17T15:32:42;18.10;90.70
16907;DHT22;8570;52.380;4.654;2023-05-17T15:37:45;18.00;91.00
16907;DHT22;8570;52.380;4.654;2023-05-17T15:42:49;18.00;91.30
16907;DHT22;8570;52.380;4.654;2023-05-17T15:47:51;18.10;91.40
16907;DHT22;8570;52.380;4.654;2023-05-17T15:52:56;18.00;91.30
16907;DHT22;8570;52.380;4.654;2023-05-17T15:57:59;18.00;91.20
16907;DHT22;8570;52.380;4.654;2023-05-17T16:03:01;17.90;91.00
16907;DHT22;8570;52.380;4.654;2023-05-17T16:08:03;17.90;91.20
16907;DHT22;8570;52.380;4.654;2023-05-17T16:13:06;17.90;91.10
16907;DHT22;8570;52.380;4.654;2023-05-17T16:18:08;17.80;90.80
16907;DHT22;8570;52.380;4.654;2023-05-17T16:23:13;17.80;90.70
16907;DHT22;8570;52.380;4.654;2023-05-17T16:28:19;17.60;90.30
16907;DHT22;8570;52.380;4.654;2023-05-17T16:33:22;17.30;90.40
16907;DHT22;8570;52.380;4.654;2023-05-17T16:38:23;17.10;90.40
16907;DHT22;8570;52.380;4.654;2023-05-17T16:43:27;16.80;90.60
16907;DHT22;8570;52.380;4.654;2023-05-17T16:48:29;16.60;90.70
16907;DHT22;8570;52.380;4.654;2023-05-17T16:53:33;16.30;90.70
16907;DHT22;8570;52.380;4.654;2023-05-17T16:58:37;16.20;91.00
16907;DHT22;8570;52.380;4.654;2023-05-17T17:03:39;15.90;91.00
16907;DHT22;8570;52.380;4.654;2023-05-17T17:08:42;15.70;91.40
16907;DHT22;8570;52.380;4.654;2023-05-17T17:13:47;15.60;91.60
16907;DHT22;8570;52.380;4.654;2023-05-17T17:18:49;15.40;91.90
16907;DHT22;8570;52.380;4.654;2023-05-17T17:23:51;15.30;92.00
16907;DHT22;8570;52.380;4.654;2023-05-17T17:28:57;15.10;92.20
16907;DHT22;8570;52.380;4.654;2023-05-17T17:33:59;14.90;92.30
16907;DHT22;8570;52.380;4.654;2023-05-17T17:39:01;14.70;92.60
16907;DHT22;8570;52.380;4.654;2023-05-17T17:44:04;14.60;92.80
16907;DHT22;8570;52.380;4.654;2023-05-17T17:49:06;14.50;93.10
16907;DHT22;8570;52.380;4.654;2023-05-17T17:54:08;14.40;93.40
16907;DHT22;8570;52.380;4.654;2023-05-17T17:59:11;14.30;93.70
16907;DHT22;8570;52.380;4.654;2023-05-17T18:04:13;14.30;93.90
16907;DHT22;8570;52.380;4.654;2023-05-17T18:09:15;14.20;94.00
16907;DHT22;8570;52.380;4.654;2023-05-17T18:14:19;14.10;94.00
16907;DHT22;8570;52.380;4.654;2023-05-17T18:19:21;14.00;94.10
16907;DHT22;8570;52.380;4.654;2023-05-17T18:24:23;13.90;94.20
16907;DHT22;8570;52.380;4.654;2023-05-17T18:29:26;13.80;94.20
16907;DHT22;8570;52.380;4.654;2023-05-17T18:34:28;13.70;94.00
16907;DHT22;8570;52.380;4.654;2023-05-17T18:39:30;13.70;94.10
16907;DHT22;8570;52.380;4.654;2023-05-17T18:44:33;13.60;93.90
16907;DHT22;8570;52.380;4.654;2023-05-17T18:49:36;13.50;93.90
16907;DHT22;8570;52.380;4.654;2023-05-17T18:54:41;13.40;93.80
16907;DHT22;8570;52.380;4.654;2023-05-17T18:59:45;13.20;93.80
16907;DHT22;8570;52.380;4.654;2023-05-17T19:19:56;12.90;99.90
16907;DHT22;8570;52.380;4.654;2023-05-17T19:24:57;12.80;94.40
16907;DHT22;8570;52.380;4.654;2023-05-17T19:30:01;12.70;94.50
16907;DHT22;8570;52.380;4.654;2023-05-17T19:35:03;12.60;94.50
16907;DHT22;8570;52.380;4.654;2023-05-17T19:40:06;12.50;94.60
16907;DHT22;8570;52.380;4.654;2023-05-17T19:45:10;12.50;94.60
16907;DHT22;8570;52.380;4.654;2023-05-17T19:50:12;12.30;94.60
16907;DHT22;8570;52.380;4.654;2023-05-17T19:55:15;12.30;94.80
16907;DHT22;8570;52.380;4.654;2023-05-17T20:00:22;12.20;94.90
16907;DHT22;8570;52.380;4.654;2023-05-17T20:05:24;12.10;95.00
16907;DHT22;8570;52.380;4.654;2023-05-17T20:10:27;12.00;95.10
16907;DHT22;8570;52.380;4.654;2023-05-17T20:15:31;11.90;95.20
16907;DHT22;8570;52.380;4.654;2023-05-17T20:20:33;11.80;95.40
16907;DHT22;8570;52.380;4.654;2023-05-17T20:25:37;11.70;95.40
16907;DHT22;8570;52.380;4.654;2023-05-17T20:30:43;11.70;95.60
16907;DHT22;8570;52.380;4.654;2023-05-17T20:40:47;11.50;95.40
16907;DHT22;8570;52.380;4.654;2023-05-17T20:45:52;11.40;95.70
16907;DHT22;8570;52.380;4.654;2023-05-17T20:50:54;11.30;95.70
16907;DHT22;8570;52.380;4.654;2023-05-17T20:55:56;11.20;95.70
16907;DHT22;8570;52.380;4.654;2023-05-17T21:01:00;11.20;95.90
16907;DHT22;8570;52.380;4.654;2023-05-17T21:06:02;11.10;96.00
16907;DHT22;8570;52.380;4.654;2023-05-17T21:11:04;11.10;96.00
16907;DHT22;8570;52.380;4.654;2023-05-17T21:16:08;11.00;95.90
16907;DHT22;8570;52.380;4.654;2023-05-17T21:21:10;10.90;95.90
16907;DHT22;8570;52.380;4.654;2023-05-17T21:26:12;10.80;96.30
16907;DHT22;8570;52.380;4.654;2023-05-17T21:31:18;10.70;96.10
16907;DHT22;8570;52.380;4.654;2023-05-17T21:36:24;10.60;96.10
16907;DHT22;8570;52.380;4.654;2023-05-17T21:46:51;10.40;96.30
16907;DHT22;8570;52.380;4.654;2023-05-17T21:51:53;10.30;96.40
16907;DHT22;8570;52.380;4.654;2023-05-17T21:56:55;10.20;96.50
16907;DHT22;8570;52.380;4.654;2023-05-17T22:01:58;10.20;96.60
16907;DHT22;8570;52.380;4.654;2023-05-17T22:07:00;10.10;96.80
16907;DHT22;8570;52.380;4.654;2023-05-17T22:12:03;10.00;96.90
16907;DHT22;8570;52.380;4.654;2023-05-17T22:17:09;10.00;97.00
16907;DHT22;8570;52.380;4.654;2023-05-17T22:22:11;9.90;97.20
16907;DHT22;8570;52.380;4.654;2023-05-17T22:27:13;9.90;97.50
16907;DHT22;8570;52.380;4.654;2023-05-17T22:32:16;9.80;97.60
16907;DHT22;8570;52.380;4.654;2023-05-17T22:37:18;9.80;97.90
16907;DHT22;8570;52.380;4.654;2023-05-17T22:42:22;9.80;97.90
16907;DHT22;8570;52.380;4.654;2023-05-17T22:47:25;9.80;98.00
16907;DHT22;8570;52.380;4.654;2023-05-17T22:52:27;9.70;98.10
16907;DHT22;8570;52.380;4.654;2023-05-17T22:57:29;9.60;98.20
16907;DHT22;8570;52.380;4.654;2023-05-17T23:02:32;9.60;98.30
16907;DHT22;8570;52.380;4.654;2023-05-17T23:07:34;9.60;98.40
16907;DHT22;8570;52.380;4.654;2023-05-17T23:12:37;9.60;98.50
16907;DHT22;8570;52.380;4.654;2023-05-17T23:17:41;9.60;98.60
16907;DHT22;8570;52.380;4.654;2023-05-17T23:22:44;9.60;98.70
16907;DHT22;8570;52.380;4.654;2023-05-17T23:27:47;9.50;98.80
16907;DHT22;8570;52.380;4.654;2023-05-17T23:32:50;9.50;98.90
16907;DHT22;8570;52.380;4.654;2023-05-17T23:37:52;9.50;98.90
16907;DHT22;8570;52.380;4.654;2023-05-17T23:42:54;9.40;98.90
16907;DHT22;8570;52.380;4.654;2023-05-17T23:47:57;9.40;99.00
16907;DHT22;8570;52.380;4.654;2023-05-17T23:52:59;9.40;99.20
16907;DHT22;8570;52.380;4.654;2023-05-17T23:58:03;9.40;99.30
